This is the latest recevied weather packets stored in our database for station/object WV4O. If no packets are shown the sender has not sent any weather packets the latest 10 day(s).
| Time | Temp. | Humidity | Pressure | Rain* | Wind** | Luminosity | Snow |
|---|---|---|---|---|---|---|---|
| 1777621518 | 10.56° C | 88% | 1014.6 hPa | 0 mm | - | 0 W/m² | - |
| 1777620917 | 10.56° C | 87% | 1014.5 hPa | 0 mm | - | 0 W/m² | - |
| 1777608916 | 13.89° C | 72% | 1015.6 hPa | 0 mm | - | 0 W/m² | - |
| 1777599919 | 15.56° C | 53% | 1015.2 hPa | 0 mm | - | 0 W/m² | - |
| 1777598119 | 16.11° C | 50% | 1014.8 hPa | 0 mm | - | 0 W/m² | - |
| 1777595117 | 16.67° C | 44% | 1014.7 hPa | 0 mm | - | 17 W/m² | - |
| 1777590918 | 17.78° C | 40% | 1014.4 hPa | 0 mm | - | 126 W/m² | - |
| 1777587341 | 18.33° C | 39% | 1014.2 hPa | 0 mm | - | 336 W/m² | - |
| 1777586716 | 17.78° C | 39% | 1014.1 hPa | 0 mm | - | 429 W/m² | - |
| 1777585516 | 17.78° C | 39% | 1014.4 hPa | 0 mm | - | 503 W/m² | - |
| 1777583717 | 17.78° C | 39% | 1014.6 hPa | 0 mm | - | 568 W/m² | - |
| 1777579518 | 17.78° C | 40% | 1014.9 hPa | 0 mm | - | 804 W/m² | - |
| 1777578917 | 17.22° C | 40% | 1015.2 hPa | 0 mm | - | 806 W/m² | - |
| 1777574139 | 16.67° C | 41% | 1015.9 hPa | 0 mm | - | 903 W/m² | - |
| 1777565718 | 15° C | 42% | 1016.7 hPa | 0 mm | - | 791 W/m² | - |
| 1777565118 | 15° C | 41% | 1016.6 hPa | 0 mm | - | 808 W/m² | - |
| 1777564518 | 15° C | 41% | 1016.6 hPa | 0 mm | - | 861 W/m² | - |
| 1777562119 | 13.89° C | 44% | 1016.5 hPa | 0 mm | - | 738 W/m² | - |
| 1777560919 | 13.89° C | 43% | 1016.3 hPa | 0 mm | - | 691 W/m² | - |
| 1777556737 | 12.78° C | 52% | 1016.9 hPa | 0 mm | - | 436 W/m² | - |
| 1777556118 | 12.78° C | 55% | 1016.8 hPa | 0 mm | - | 388 W/m² | - |
| 1777554317 | 11.67° C | 71% | 1016.7 hPa | 0 mm | - | 247 W/m² | - |
| 1777550119 | 10° C | 80% | 1016.7 hPa | 0 mm | - | 89 W/m² | - |
| 1777539920 | 11.11° C | 74% | 1016.1 hPa | 0 mm | - | 0 W/m² | - |
| 1777538138 | 11.67° C | 72% | 1016 hPa | 0 mm | - | 0 W/m² | - |
* Rain latest hour (hover to see other rain measurements)
** Current wind speed in m/s (hover to see current wind gust speed)